sensor_id;sensor_type;location;lat;lon;timestamp;temperature;humidity
21312;DHT22;18076;52.154;10.570;2023-04-03T00:01:32;0.30;99.90
21312;DHT22;18076;52.154;10.570;2023-04-03T00:03:58;0.30;99.90
21312;DHT22;18076;52.154;10.570;2023-04-03T00:06:24;0.20;99.90
21312;DHT22;18076;52.154;10.570;2023-04-03T00:08:50;0.20;99.90
21312;DHT22;18076;52.154;10.570;2023-04-03T00:11:16;0.20;99.90
21312;DHT22;18076;52.154;10.570;2023-04-03T00:13:42;0.20;99.90
21312;DHT22;18076;52.154;10.570;2023-04-03T00:16:08;0.20;99.90
21312;DHT22;18076;52.154;10.570;2023-04-03T00:18:35;0.20;99.90
21312;DHT22;18076;52.154;10.570;2023-04-03T00:21:00;0.10;99.90
21312;DHT22;18076;52.154;10.570;2023-04-03T00:23:26;0.10;99.90
21312;DHT22;18076;52.154;10.570;2023-04-03T00:25:52;0.10;99.90
21312;DHT22;18076;52.154;10.570;2023-04-03T00:28:18;0.20;99.90
21312;DHT22;18076;52.154;10.570;2023-04-03T00:30:43;0.20;99.90
21312;DHT22;18076;52.154;10.570;2023-04-03T00:33:12;0.20;99.90
21312;DHT22;18076;52.154;10.570;2023-04-03T00:35:38;0.20;99.90
21312;DHT22;18076;52.154;10.570;2023-04-03T00:38:04;0.10;99.90
21312;DHT22;18076;52.154;10.570;2023-04-03T00:40:33;0.10;99.90
21312;DHT22;18076;52.154;10.570;2023-04-03T00:42:59;0.00;99.90
21312;DHT22;18076;52.154;10.570;2023-04-03T00:45:30;0.00;99.90
21312;DHT22;18076;52.154;10.570;2023-04-03T00:47:56;0.00;99.90
21312;DHT22;18076;52.154;10.570;2023-04-03T00:50:24;-0.10;99.90
21312;DHT22;18076;52.154;10.570;2023-04-03T00:52:50;-0.10;99.90
21312;DHT22;18076;52.154;10.570;2023-04-03T00:55:16;-0.10;99.90
21312;DHT22;18076;52.154;10.570;2023-04-03T00:57:42;-0.10;99.90
21312;DHT22;18076;52.154;10.570;2023-04-03T01:00:10;-0.10;99.90
21312;DHT22;18076;52.154;10.570;2023-04-03T01:02:36;-0.10;99.90
21312;DHT22;18076;52.154;10.570;2023-04-03T01:05:02;-0.20;99.90
21312;DHT22;18076;52.154;10.570;2023-04-03T01:07:29;-0.10;99.90
21312;DHT22;18076;52.154;10.570;2023-04-03T01:09:59;-0.20;99.90
21312;DHT22;18076;52.154;10.570;2023-04-03T01:12:26;-0.20;99.90
21312;DHT22;18076;52.154;10.570;2023-04-03T01:14:56;-0.20;99.90
21312;DHT22;18076;52.154;10.570;2023-04-03T01:17:29;-0.30;99.90
21312;DHT22;18076;52.154;10.570;2023-04-03T01:22:29;-0.30;99.90
21312;DHT22;18076;52.154;10.570;2023-04-03T01:24:57;-0.40;99.90
21312;DHT22;18076;52.154;10.570;2023-04-03T01:27:24;-0.30;99.90
21312;DHT22;18076;52.154;10.570;2023-04-03T01:29:49;-0.30;99.90
21312;DHT22;18076;52.154;10.570;2023-04-03T01:32:15;-0.20;99.90
21312;DHT22;18076;52.154;10.570;2023-04-03T01:34:40;-0.20;99.90
21312;DHT22;18076;52.154;10.570;2023-04-03T01:37:06;-0.20;99.90
21312;DHT22;18076;52.154;10.570;2023-04-03T01:39:31;-0.20;99.90
21312;DHT22;18076;52.154;10.570;2023-04-03T01:41:57;-0.30;99.90
21312;DHT22;18076;52.154;10.570;2023-04-03T01:44:24;-0.30;99.90
21312;DHT22;18076;52.154;10.570;2023-04-03T01:46:49;-0.30;99.90
21312;DHT22;18076;52.154;10.570;2023-04-03T01:49:15;-0.30;99.90
21312;DHT22;18076;52.154;10.570;2023-04-03T01:51:41;-0.30;99.90
21312;DHT22;18076;52.154;10.570;2023-04-03T01:54:06;-0.30;99.90
21312;DHT22;18076;52.154;10.570;2023-04-03T01:56:31;-0.30;99.90
21312;DHT22;18076;52.154;10.570;2023-04-03T01:58:57;-0.30;99.90
21312;DHT22;18076;52.154;10.570;2023-04-03T02:01:22;-0.30;99.90
21312;DHT22;18076;52.154;10.570;2023-04-03T02:03:48;-0.30;99.90
21312;DHT22;18076;52.154;10.570;2023-04-03T02:06:14;-0.30;99.90
21312;DHT22;18076;52.154;10.570;2023-04-03T02:08:39;-0.30;99.90
21312;DHT22;18076;52.154;10.570;2023-04-03T02:11:06;-0.40;99.90
21312;DHT22;18076;52.154;10.570;2023-04-03T02:13:32;-0.40;99.90
21312;DHT22;18076;52.154;10.570;2023-04-03T02:15:57;-0.40;99.90
21312;DHT22;18076;52.154;10.570;2023-04-03T02:18:24;-0.40;99.90
21312;DHT22;18076;52.154;10.570;2023-04-03T02:20:49;-0.40;99.90
21312;DHT22;18076;52.154;10.570;2023-04-03T02:23:15;-0.40;99.90
21312;DHT22;18076;52.154;10.570;2023-04-03T02:25:41;-0.40;99.90
21312;DHT22;18076;52.154;10.570;2023-04-03T02:28:07;-0.40;99.90
21312;DHT22;18076;52.154;10.570;2023-04-03T02:30:32;-0.40;99.90
21312;DHT22;18076;52.154;10.570;2023-04-03T02:32:58;-0.50;99.90
21312;DHT22;18076;52.154;10.570;2023-04-03T02:35:24;-0.50;99.90
21312;DHT22;18076;52.154;10.570;2023-04-03T02:37:49;-0.50;99.90
21312;DHT22;18076;52.154;10.570;2023-04-03T02:40:15;-0.50;99.90
21312;DHT22;18076;52.154;10.570;2023-04-03T02:42:41;-0.50;99.90
21312;DHT22;18076;52.154;10.570;2023-04-03T02:45:07;-0.50;99.90
21312;DHT22;18076;52.154;10.570;2023-04-03T02:47:32;-0.50;99.90
21312;DHT22;18076;52.154;10.570;2023-04-03T02:49:58;-0.50;99.90
21312;DHT22;18076;52.154;10.570;2023-04-03T02:52:26;-0.50;99.90
21312;DHT22;18076;52.154;10.570;2023-04-03T02:54:51;-0.50;99.90
21312;DHT22;18076;52.154;10.570;2023-04-03T02:57:17;-0.50;99.90
21312;DHT22;18076;52.154;10.570;2023-04-03T02:59:42;-0.60;99.90
21312;DHT22;18076;52.154;10.570;2023-04-03T03:02:09;-0.60;99.90
21312;DHT22;18076;52.154;10.570;2023-04-03T03:04:35;-0.60;99.90
21312;DHT22;18076;52.154;10.570;2023-04-03T03:07:01;-0.60;99.90
21312;DHT22;18076;52.154;10.570;2023-04-03T03:09:27;-0.60;99.90
21312;DHT22;18076;52.154;10.570;2023-04-03T03:11:56;-0.60;99.90
21312;DHT22;18076;52.154;10.570;2023-04-03T03:14:22;-0.60;99.90
21312;DHT22;18076;52.154;10.570;2023-04-03T03:16:47;-0.60;99.90
21312;DHT22;18076;52.154;10.570;2023-04-03T03:19:13;-0.60;99.90
21312;DHT22;18076;52.154;10.570;2023-04-03T03:21:38;-0.70;99.90
21312;DHT22;18076;52.154;10.570;2023-04-03T03:24:04;-0.70;99.90
21312;DHT22;18076;52.154;10.570;2023-04-03T03:26:30;-0.70;99.90
21312;DHT22;18076;52.154;10.570;2023-04-03T03:28:55;-0.70;99.90
21312;DHT22;18076;52.154;10.570;2023-04-03T03:31:21;-0.70;99.90
21312;DHT22;18076;52.154;10.570;2023-04-03T03:33:46;-0.70;99.90
21312;DHT22;18076;52.154;10.570;2023-04-03T03:36:12;-0.70;99.90
21312;DHT22;18076;52.154;10.570;2023-04-03T03:38:37;-0.80;99.90
21312;DHT22;18076;52.154;10.570;2023-04-03T03:41:03;-0.80;99.90
21312;DHT22;18076;52.154;10.570;2023-04-03T03:43:29;-0.80;99.90
21312;DHT22;18076;52.154;10.570;2023-04-03T03:45:55;-0.90;99.90
21312;DHT22;18076;52.154;10.570;2023-04-03T03:48:20;-0.90;99.90
21312;DHT22;18076;52.154;10.570;2023-04-03T03:50:46;-0.90;99.90
21312;DHT22;18076;52.154;10.570;2023-04-03T03:53:12;-0.90;99.90
21312;DHT22;18076;52.154;10.570;2023-04-03T03:55:37;-1.00;99.90
21312;DHT22;18076;52.154;10.570;2023-04-03T03:58:03;-1.00;99.90
21312;DHT22;18076;52.154;10.570;2023-04-03T04:00:29;-1.00;99.90
21312;DHT22;18076;52.154;10.570;2023-04-03T04:02:54;-1.00;99.90
21312;DHT22;18076;52.154;10.570;2023-04-03T04:05:21;-1.10;99.90
21312;DHT22;18076;52.154;10.570;2023-04-03T04:07:46;-1.00;99.90
21312;DHT22;18076;52.154;10.570;2023-04-03T04:10:13;-1.10;99.90
21312;DHT22;18076;52.154;10.570;2023-04-03T04:12:39;-1.10;99.90
21312;DHT22;18076;52.154;10.570;2023-04-03T04:15:04;-1.10;99.90
21312;DHT22;18076;52.154;10.570;2023-04-03T04:17:30;-1.10;99.90
21312;DHT22;18076;52.154;10.570;2023-04-03T04:19:55;-1.10;99.90
21312;DHT22;18076;52.154;10.570;2023-04-03T04:22:21;-1.10;99.90
21312;DHT22;18076;52.154;10.570;2023-04-03T04:24:47;-1.10;99.90
21312;DHT22;18076;52.154;10.570;2023-04-03T04:27:12;-1.10;99.90
21312;DHT22;18076;52.154;10.570;2023-04-03T04:29:38;-1.10;99.90
21312;DHT22;18076;52.154;10.570;2023-04-03T04:32:04;-1.20;99.90
21312;DHT22;18076;52.154;10.570;2023-04-03T04:34:29;-1.20;99.90
21312;DHT22;18076;52.154;10.570;2023-04-03T04:36:55;-1.20;99.90
21312;DHT22;18076;52.154;10.570;2023-04-03T04:39:21;-1.20;99.90
21312;DHT22;18076;52.154;10.570;2023-04-03T04:41:46;-1.20;99.90
21312;DHT22;18076;52.154;10.570;2023-04-03T04:44:12;-1.20;99.90
21312;DHT22;18076;52.154;10.570;2023-04-03T04:46:37;-1.20;99.90
21312;DHT22;18076;52.154;10.570;2023-04-03T04:49:03;-1.20;99.90
21312;DHT22;18076;52.154;10.570;2023-04-03T04:51:28;-1.20;99.90
21312;DHT22;18076;52.154;10.570;2023-04-03T04:53:54;-1.20;99.90
21312;DHT22;18076;52.154;10.570;2023-04-03T04:56:22;-1.20;99.90
21312;DHT22;18076;52.154;10.570;2023-04-03T04:58:48;-1.20;99.90
21312;DHT22;18076;52.154;10.570;2023-04-03T05:01:14;-1.20;99.90
21312;DHT22;18076;52.154;10.570;2023-04-03T05:03:39;-1.20;99.90
21312;DHT22;18076;52.154;10.570;2023-04-03T05:06:06;-1.20;99.90
21312;DHT22;18076;52.154;10.570;2023-04-03T05:08:32;-1.10;99.90
21312;DHT22;18076;52.154;10.570;2023-04-03T05:10:58;-0.80;99.90
21312;DHT22;18076;52.154;10.570;2023-04-03T05:13:23;-0.40;99.90
21312;DHT22;18076;52.154;10.570;2023-04-03T05:15:49;0.00;99.90
21312;DHT22;18076;52.154;10.570;2023-04-03T05:18:15;0.30;99.90
21312;DHT22;18076;52.154;10.570;2023-04-03T05:20:41;0.40;99.90
21312;DHT22;18076;52.154;10.570;2023-04-03T05:23:09;0.40;99.90
21312;DHT22;18076;52.154;10.570;2023-04-03T05:25:34;0.40;99.90
21312;DHT22;18076;52.154;10.570;2023-04-03T05:28:02;0.50;99.90
21312;DHT22;18076;52.154;10.570;2023-04-03T05:30:27;0.50;99.90
21312;DHT22;18076;52.154;10.570;2023-04-03T05:32:53;0.50;99.90
21312;DHT22;18076;52.154;10.570;2023-04-03T05:35:18;0.70;99.90
21312;DHT22;18076;52.154;10.570;2023-04-03T05:37:44;0.60;99.90
21312;DHT22;18076;52.154;10.570;2023-04-03T05:40:09;0.70;99.90
21312;DHT22;18076;52.154;10.570;2023-04-03T05:42:35;0.70;99.90
21312;DHT22;18076;52.154;10.570;2023-04-03T05:45:01;0.80;99.90
21312;DHT22;18076;52.154;10.570;2023-04-03T05:47:26;1.00;99.90
21312;DHT22;18076;52.154;10.570;2023-04-03T05:49:52;1.30;99.90
21312;DHT22;18076;52.154;10.570;2023-04-03T05:52:20;1.50;99.90
21312;DHT22;18076;52.154;10.570;2023-04-03T05:54:46;1.50;99.90
21312;DHT22;18076;52.154;10.570;2023-04-03T05:57:14;1.40;99.90
21312;DHT22;18076;52.154;10.570;2023-04-03T05:59:39;1.60;99.90
21312;DHT22;18076;52.154;10.570;2023-04-03T06:02:05;1.90;99.90
21312;DHT22;18076;52.154;10.570;2023-04-03T06:04:31;2.30;99.90
21312;DHT22;18076;52.154;10.570;2023-04-03T06:06:57;2.70;99.90
21312;DHT22;18076;52.154;10.570;2023-04-03T06:09:24;3.30;99.90
21312;DHT22;18076;52.154;10.570;2023-04-03T06:11:50;4.00;99.90
21312;DHT22;18076;52.154;10.570;2023-04-03T06:14:17;4.30;99.90
21312;DHT22;18076;52.154;10.570;2023-04-03T06:17:08;4.70;99.90
21312;DHT22;18076;52.154;10.570;2023-04-03T06:19:34;5.10;99.90
21312;DHT22;18076;52.154;10.570;2023-04-03T06:22:00;5.20;99.90
21312;DHT22;18076;52.154;10.570;2023-04-03T06:24:28;5.30;99.90
21312;DHT22;18076;52.154;10.570;2023-04-03T06:26:54;5.50;99.90
21312;DHT22;18076;52.154;10.570;2023-04-03T06:29:19;5.50;99.90
21312;DHT22;18076;52.154;10.570;2023-04-03T06:31:45;5.60;99.90
21312;DHT22;18076;52.154;10.570;2023-04-03T06:34:11;5.80;99.90
21312;DHT22;18076;52.154;10.570;2023-04-03T06:36:38;6.00;99.90
21312;DHT22;18076;52.154;10.570;2023-04-03T06:39:03;6.20;99.90
21312;DHT22;18076;52.154;10.570;2023-04-03T06:41:29;6.30;99.90
21312;DHT22;18076;52.154;10.570;2023-04-03T06:43:55;6.50;99.90
21312;DHT22;18076;52.154;10.570;2023-04-03T06:46:22;6.70;99.90
21312;DHT22;18076;52.154;10.570;2023-04-03T06:48:48;6.80;99.90
21312;DHT22;18076;52.154;10.570;2023-04-03T06:53:42;6.90;99.90
21312;DHT22;18076;52.154;10.570;2023-04-03T06:56:09;6.90;99.90
21312;DHT22;18076;52.154;10.570;2023-04-03T06:58:38;7.00;99.90
21312;DHT22;18076;52.154;10.570;2023-04-03T07:01:04;7.00;99.90
21312;DHT22;18076;52.154;10.570;2023-04-03T07:03:30;7.10;99.90
21312;DHT22;18076;52.154;10.570;2023-04-03T07:05:56;7.20;99.90
21312;DHT22;18076;52.154;10.570;2023-04-03T07:08:21;7.40;99.90
21312;DHT22;18076;52.154;10.570;2023-04-03T07:10:49;7.60;99.90
21312;DHT22;18076;52.154;10.570;2023-04-03T07:13:15;7.70;99.90
21312;DHT22;18076;52.154;10.570;2023-04-03T07:15:40;7.80;99.90
21312;DHT22;18076;52.154;10.570;2023-04-03T07:18:06;7.90;99.90
21312;DHT22;18076;52.154;10.570;2023-04-03T07:20:31;7.90;99.90
21312;DHT22;18076;52.154;10.570;2023-04-03T07:22:57;7.90;99.90
21312;DHT22;18076;52.154;10.570;2023-04-03T07:25:23;7.80;99.90
21312;DHT22;18076;52.154;10.570;2023-04-03T07:27:48;7.80;99.90
21312;DHT22;18076;52.154;10.570;2023-04-03T07:30:14;7.70;99.90
21312;DHT22;18076;52.154;10.570;2023-04-03T07:32:40;7.80;99.90
21312;DHT22;18076;52.154;10.570;2023-04-03T07:35:05;7.80;99.90
21312;DHT22;18076;52.154;10.570;2023-04-03T07:37:31;7.90;99.90
21312;DHT22;18076;52.154;10.570;2023-04-03T07:39:57;8.10;99.90
21312;DHT22;18076;52.154;10.570;2023-04-03T07:42:24;8.30;99.90
21312;DHT22;18076;52.154;10.570;2023-04-03T07:44:51;8.20;99.90
21312;DHT22;18076;52.154;10.570;2023-04-03T07:47:18;8.00;99.90
21312;DHT22;18076;52.154;10.570;2023-04-03T07:49:43;8.00;99.90
21312;DHT22;18076;52.154;10.570;2023-04-03T07:52:09;7.80;99.90
21312;DHT22;18076;52.154;10.570;2023-04-03T07:54:35;7.60;99.90
21312;DHT22;18076;52.154;10.570;2023-04-03T07:57:01;7.50;99.90
21312;DHT22;18076;52.154;10.570;2023-04-03T07:59:26;7.40;99.90
21312;DHT22;18076;52.154;10.570;2023-04-03T08:01:52;7.30;99.90
21312;DHT22;18076;52.154;10.570;2023-04-03T08:04:18;7.50;99.90
21312;DHT22;18076;52.154;10.570;2023-04-03T08:06:43;7.50;99.90
21312;DHT22;18076;52.154;10.570;2023-04-03T08:09:09;7.60;99.90
21312;DHT22;18076;52.154;10.570;2023-04-03T08:11:34;7.60;99.90
21312;DHT22;18076;52.154;10.570;2023-04-03T08:14:01;7.60;99.90
21312;DHT22;18076;52.154;10.570;2023-04-03T08:16:27;7.70;99.90
21312;DHT22;18076;52.154;10.570;2023-04-03T08:18:53;7.90;99.90
21312;DHT22;18076;52.154;10.570;2023-04-03T08:21:19;7.90;99.90
21312;DHT22;18076;52.154;10.570;2023-04-03T08:23:47;7.90;99.90
21312;DHT22;18076;52.154;10.570;2023-04-03T08:26:13;8.40;99.90
21312;DHT22;18076;52.154;10.570;2023-04-03T08:28:39;8.40;99.90
21312;DHT22;18076;52.154;10.570;2023-04-03T08:31:14;8.80;99.90
21312;DHT22;18076;52.154;10.570;2023-04-03T08:33:40;9.00;99.90
21312;DHT22;18076;52.154;10.570;2023-04-03T08:36:07;8.90;99.90
21312;DHT22;18076;52.154;10.570;2023-04-03T08:38:33;8.90;99.90
21312;DHT22;18076;52.154;10.570;2023-04-03T08:41:04;9.00;99.90
21312;DHT22;18076;52.154;10.570;2023-04-03T08:45:59;9.50;99.90
21312;DHT22;18076;52.154;10.570;2023-04-03T08:48:30;9.40;99.90
21312;DHT22;18076;52.154;10.570;2023-04-03T08:50:58;9.50;99.90
21312;DHT22;18076;52.154;10.570;2023-04-03T08:56:08;10.20;99.90
21312;DHT22;18076;52.154;10.570;2023-04-03T08:58:41;10.50;99.90
21312;DHT22;18076;52.154;10.570;2023-04-03T09:03:46;10.50;99.90
21312;DHT22;18076;52.154;10.570;2023-04-03T09:11:19;10.50;99.90
21312;DHT22;18076;52.154;10.570;2023-04-03T09:16:27;9.80;99.90
21312;DHT22;18076;52.154;10.570;2023-04-03T09:18:59;9.60;99.90
21312;DHT22;18076;52.154;10.570;2023-04-03T09:21:34;9.30;99.90
21312;DHT22;18076;52.154;10.570;2023-04-03T09:24:02;9.10;99.90
21312;DHT22;18076;52.154;10.570;2023-04-03T09:26:30;8.90;99.90
21312;DHT22;18076;52.154;10.570;2023-04-03T09:28:58;8.70;99.90
21312;DHT22;18076;52.154;10.570;2023-04-03T09:31:36;8.40;99.90
21312;DHT22;18076;52.154;10.570;2023-04-03T09:34:02;8.10;99.90
21312;DHT22;18076;52.154;10.570;2023-04-03T09:36:37;8.00;99.90
21312;DHT22;18076;52.154;10.570;2023-04-03T09:39:04;7.90;99.90
21312;DHT22;18076;52.154;10.570;2023-04-03T09:41:30;7.80;99.90
21312;DHT22;18076;52.154;10.570;2023-04-03T09:43:57;7.70;99.90
21312;DHT22;18076;52.154;10.570;2023-04-03T09:46:32;8.20;99.90
21312;DHT22;18076;52.154;10.570;2023-04-03T09:48:59;8.50;99.90
21312;DHT22;18076;52.154;10.570;2023-04-03T09:51:28;8.10;99.90
21312;DHT22;18076;52.154;10.570;2023-04-03T09:53:54;7.70;99.90
21312;DHT22;18076;52.154;10.570;2023-04-03T09:56:21;7.50;99.90
21312;DHT22;18076;52.154;10.570;2023-04-03T09:58:52;7.30;99.90
21312;DHT22;18076;52.154;10.570;2023-04-03T10:01:28;7.30;99.90
21312;DHT22;18076;52.154;10.570;2023-04-03T10:04:05;7.30;99.90
21312;DHT22;18076;52.154;10.570;2023-04-03T10:06:32;7.20;99.90
21312;DHT22;18076;52.154;10.570;2023-04-03T10:09:15;7.20;99.90
21312;DHT22;18076;52.154;10.570;2023-04-03T10:14:31;6.80;99.90
21312;DHT22;18076;52.154;10.570;2023-04-03T10:16:59;6.80;99.90
21312;DHT22;18076;52.154;10.570;2023-04-03T10:22:16;7.30;99.90
21312;DHT22;18076;52.154;10.570;2023-04-03T10:27:31;8.60;99.90
21312;DHT22;18076;52.154;10.570;2023-04-03T10:35:18;9.20;99.90
21312;DHT22;18076;52.154;10.570;2023-04-03T10:37:50;8.40;99.90
21312;DHT22;18076;52.154;10.570;2023-04-03T10:40:25;7.90;99.90
21312;DHT22;18076;52.154;10.570;2023-04-03T10:45:49;7.40;99.90
21312;DHT22;18076;52.154;10.570;2023-04-03T10:48:26;7.10;99.90
21312;DHT22;18076;52.154;10.570;2023-04-03T11:00:55;7.00;99.90
21312;DHT22;18076;52.154;10.570;2023-04-03T11:03:30;7.10;99.90
21312;DHT22;18076;52.154;10.570;2023-04-03T11:05:59;7.10;99.90
21312;DHT22;18076;52.154;10.570;2023-04-03T11:08:35;7.00;99.90
21312;DHT22;18076;52.154;10.570;2023-04-03T11:11:05;7.00;99.90
21312;DHT22;18076;52.154;10.570;2023-04-03T11:13:37;7.20;99.90
21312;DHT22;18076;52.154;10.570;2023-04-03T11:16:05;7.30;99.90
21312;DHT22;18076;52.154;10.570;2023-04-03T11:18:42;7.70;99.90
21312;DHT22;18076;52.154;10.570;2023-04-03T11:21:19;8.00;99.90
21312;DHT22;18076;52.154;10.570;2023-04-03T11:23:47;8.10;99.90
21312;DHT22;18076;52.154;10.570;2023-04-03T11:26:16;8.10;99.90
21312;DHT22;18076;52.154;10.570;2023-04-03T11:28:42;8.10;99.90
21312;DHT22;18076;52.154;10.570;2023-04-03T11:36:25;9.20;99.90
21312;DHT22;18076;52.154;10.570;2023-04-03T11:38:53;9.20;99.90
21312;DHT22;18076;52.154;10.570;2023-04-03T11:41:25;9.10;99.90
21312;DHT22;18076;52.154;10.570;2023-04-03T11:44:02;8.90;99.90
21312;DHT22;18076;52.154;10.570;2023-04-03T11:51:57;9.20;99.90
21312;DHT22;18076;52.154;10.570;2023-04-03T11:54:35;9.40;99.90
21312;DHT22;18076;52.154;10.570;2023-04-03T11:57:22;9.50;99.90
21312;DHT22;18076;52.154;10.570;2023-04-03T11:59:47;9.70;99.90
21312;DHT22;18076;52.154;10.570;2023-04-03T12:07:42;10.30;99.90
21312;DHT22;18076;52.154;10.570;2023-04-03T12:10:14;10.60;99.90
21312;DHT22;18076;52.154;10.570;2023-04-03T12:12:41;10.80;99.90
21312;DHT22;18076;52.154;10.570;2023-04-03T12:17:45;10.90;99.80
21312;DHT22;18076;52.154;10.570;2023-04-03T12:23:07;10.80;98.80
21312;DHT22;18076;52.154;10.570;2023-04-03T12:25:45;11.10;97.50
21312;DHT22;18076;52.154;10.570;2023-04-03T12:28:12;11.10;96.80
21312;DHT22;18076;52.154;10.570;2023-04-03T12:30:38;11.50;98.00
21312;DHT22;18076;52.154;10.570;2023-04-03T12:33:18;11.80;98.40
21312;DHT22;18076;52.154;10.570;2023-04-03T12:36:03;11.50;96.70
21312;DHT22;18076;52.154;10.570;2023-04-03T12:41:27;10.50;97.80
21312;DHT22;18076;52.154;10.570;2023-04-03T12:46:45;9.30;99.90
21312;DHT22;18076;52.154;10.570;2023-04-03T12:51:51;8.60;99.50
21312;DHT22;18076;52.154;10.570;2023-04-03T12:54:29;8.40;99.90
21312;DHT22;18076;52.154;10.570;2023-04-03T12:59:40;8.30;99.90
21312;DHT22;18076;52.154;10.570;2023-04-03T13:02:17;8.20;99.90
21312;DHT22;18076;52.154;10.570;2023-04-03T13:04:45;8.30;99.90
21312;DHT22;18076;52.154;10.570;2023-04-03T13:07:21;8.40;99.90
21312;DHT22;18076;52.154;10.570;2023-04-03T13:09:57;8.50;99.90
21312;DHT22;18076;52.154;10.570;2023-04-03T13:12:24;8.90;99.90
21312;DHT22;18076;52.154;10.570;2023-04-03T13:14:54;9.40;99.90
21312;DHT22;18076;52.154;10.570;2023-04-03T13:17:20;9.60;99.90
21312;DHT22;18076;52.154;10.570;2023-04-03T13:19:46;9.50;99.90
21312;DHT22;18076;52.154;10.570;2023-04-03T13:24:47;10.30;99.90
21312;DHT22;18076;52.154;10.570;2023-04-03T13:27:13;10.70;99.50
21312;DHT22;18076;52.154;10.570;2023-04-03T13:29:39;11.00;97.90
21312;DHT22;18076;52.154;10.570;2023-04-03T13:32:05;11.20;97.40
21312;DHT22;18076;52.154;10.570;2023-04-03T13:34:38;11.10;96.60
21312;DHT22;18076;52.154;10.570;2023-04-03T13:37:06;10.70;97.60
21312;DHT22;18076;52.154;10.570;2023-04-03T13:39:34;10.00;99.20
21312;DHT22;18076;52.154;10.570;2023-04-03T13:42:01;9.40;99.90
21312;DHT22;18076;52.154;10.570;2023-04-03T13:44:29;8.80;99.90
21312;DHT22;18076;52.154;10.570;2023-04-03T13:46:56;8.10;99.90
21312;DHT22;18076;52.154;10.570;2023-04-03T13:49:30;8.30;99.90
21312;DHT22;18076;52.154;10.570;2023-04-03T13:51:56;8.60;99.90
21312;DHT22;18076;52.154;10.570;2023-04-03T13:54:23;9.20;99.90
21312;DHT22;18076;52.154;10.570;2023-04-03T13:56:56;9.70;99.10
21312;DHT22;18076;52.154;10.570;2023-04-03T13:59:29;9.90;98.10
21312;DHT22;18076;52.154;10.570;2023-04-03T14:04:28;10.40;98.20
21312;DHT22;18076;52.154;10.570;2023-04-03T14:06:55;10.20;96.60
21312;DHT22;18076;52.154;10.570;2023-04-03T14:09:22;9.80;96.00
21312;DHT22;18076;52.154;10.570;2023-04-03T14:11:48;9.60;96.20
21312;DHT22;18076;52.154;10.570;2023-04-03T14:14:19;9.60;97.60
21312;DHT22;18076;52.154;10.570;2023-04-03T14:16:47;9.80;98.30
21312;DHT22;18076;52.154;10.570;2023-04-03T14:19:23;10.00;98.30
21312;DHT22;18076;52.154;10.570;2023-04-03T14:21:49;10.00;97.70
21312;DHT22;18076;52.154;10.570;2023-04-03T14:24:16;9.80;98.30
21312;DHT22;18076;52.154;10.570;2023-04-03T14:26:42;9.60;98.90
21312;DHT22;18076;52.154;10.570;2023-04-03T14:29:09;9.00;98.10
21312;DHT22;18076;52.154;10.570;2023-04-03T14:31:35;8.70;98.20
21312;DHT22;18076;52.154;10.570;2023-04-03T14:34:01;8.50;99.20
21312;DHT22;18076;52.154;10.570;2023-04-03T14:36:27;8.80;99.90
21312;DHT22;18076;52.154;10.570;2023-04-03T14:38:53;9.40;99.90
21312;DHT22;18076;52.154;10.570;2023-04-03T14:41:21;9.80;99.50
21312;DHT22;18076;52.154;10.570;2023-04-03T14:43:47;10.00;99.10
21312;DHT22;18076;52.154;10.570;2023-04-03T14:46:15;9.80;98.50
21312;DHT22;18076;52.154;10.570;2023-04-03T14:48:41;9.50;99.30
21312;DHT22;18076;52.154;10.570;2023-04-03T14:51:06;9.30;99.80
21312;DHT22;18076;52.154;10.570;2023-04-03T14:53:32;8.90;98.60
21312;DHT22;18076;52.154;10.570;2023-04-03T14:55:58;9.30;99.60
21312;DHT22;18076;52.154;10.570;2023-04-03T14:58:23;9.60;98.90
21312;DHT22;18076;52.154;10.570;2023-04-03T15:00:49;9.80;98.70
21312;DHT22;18076;52.154;10.570;2023-04-03T15:03:16;9.80;98.20
21312;DHT22;18076;52.154;10.570;2023-04-03T15:05:42;9.80;98.30
21312;DHT22;18076;52.154;10.570;2023-04-03T15:08:13;9.60;97.70
21312;DHT22;18076;52.154;10.570;2023-04-03T15:10:41;9.30;98.40
21312;DHT22;18076;52.154;10.570;2023-04-03T15:13:08;8.90;98.20
21312;DHT22;18076;52.154;10.570;2023-04-03T15:15:33;8.50;98.90
21312;DHT22;18076;52.154;10.570;2023-04-03T15:18:00;8.40;99.90
21312;DHT22;18076;52.154;10.570;2023-04-03T15:20:26;8.60;98.10
21312;DHT22;18076;52.154;10.570;2023-04-03T15:22:52;8.70;97.80
21312;DHT22;18076;52.154;10.570;2023-04-03T15:25:18;8.70;97.90
21312;DHT22;18076;52.154;10.570;2023-04-03T15:27:44;8.60;98.70
21312;DHT22;18076;52.154;10.570;2023-04-03T15:30:14;8.70;99.90
21312;DHT22;18076;52.154;10.570;2023-04-03T15:32:40;8.80;99.90
21312;DHT22;18076;52.154;10.570;2023-04-03T15:35:06;8.80;99.60
21312;DHT22;18076;52.154;10.570;2023-04-03T15:37:34;8.80;99.00
21312;DHT22;18076;52.154;10.570;2023-04-03T15:40:00;8.70;98.10
21312;DHT22;18076;52.154;10.570;2023-04-03T15:42:28;8.80;99.20
21312;DHT22;18076;52.154;10.570;2023-04-03T15:44:53;8.90;97.50
21312;DHT22;18076;52.154;10.570;2023-04-03T15:47:19;9.00;97.00
21312;DHT22;18076;52.154;10.570;2023-04-03T15:49:45;9.00;97.50
21312;DHT22;18076;52.154;10.570;2023-04-03T15:52:10;9.00;98.20
21312;DHT22;18076;52.154;10.570;2023-04-03T15:54:36;8.80;98.40
21312;DHT22;18076;52.154;10.570;2023-04-03T15:57:02;8.80;98.40
21312;DHT22;18076;52.154;10.570;2023-04-03T15:59:27;8.70;98.40
21312;DHT22;18076;52.154;10.570;2023-04-03T16:01:55;8.80;98.70
21312;DHT22;18076;52.154;10.570;2023-04-03T16:04:21;8.80;98.20
21312;DHT22;18076;52.154;10.570;2023-04-03T16:06:48;8.60;97.80
21312;DHT22;18076;52.154;10.570;2023-04-03T16:09:14;8.40;98.70
21312;DHT22;18076;52.154;10.570;2023-04-03T16:11:40;8.20;98.80
21312;DHT22;18076;52.154;10.570;2023-04-03T16:14:06;7.90;99.30
21312;DHT22;18076;52.154;10.570;2023-04-03T16:16:31;7.60;99.70
21312;DHT22;18076;52.154;10.570;2023-04-03T16:18:57;7.40;99.90
21312;DHT22;18076;52.154;10.570;2023-04-03T16:21:23;7.40;99.90
21312;DHT22;18076;52.154;10.570;2023-04-03T16:23:49;7.40;99.90
21312;DHT22;18076;52.154;10.570;2023-04-03T16:26:14;7.50;99.90
21312;DHT22;18076;52.154;10.570;2023-04-03T16:28:40;7.50;99.90
21312;DHT22;18076;52.154;10.570;2023-04-03T16:31:06;7.70;99.90
21312;DHT22;18076;52.154;10.570;2023-04-03T16:33:32;7.70;99.90
21312;DHT22;18076;52.154;10.570;2023-04-03T16:35:58;7.60;99.90
21312;DHT22;18076;52.154;10.570;2023-04-03T16:38:24;7.50;99.90
21312;DHT22;18076;52.154;10.570;2023-04-03T16:40:49;7.50;99.90
21312;DHT22;18076;52.154;10.570;2023-04-03T16:43:15;7.50;99.90
21312;DHT22;18076;52.154;10.570;2023-04-03T16:45:41;7.40;99.90
21312;DHT22;18076;52.154;10.570;2023-04-03T16:48:07;7.40;99.90
21312;DHT22;18076;52.154;10.570;2023-04-03T16:50:32;7.50;99.90